To NAV CANADA Home Page Login to a new session Search on AWWS site Disclaimer Vers la page française équivalente Tips FAQ What's new on the site To the Forecasts and Observations / NOTAM section To "File a Flight Plan" website Publications and other links Update of the User's profile FIC Telephone Numbers My Weather Data Folder Route Weather Data Regional Weather Data Local Weather Data To the Forecasts and Observations / NOTAM section
Request Generated 11/16/2018 at 01:16:26 UTC . Weather information available at that time is displayed.

METAR/TAF

BUFFALO NARROWS/SK    

METAR CYVT 160100Z 05008KT 15SM FEW025 BKN055 OVC220 M13/M17 A3018 RMK SC2SC3CI3 SLP258=
METAR CYVT 160000Z 03006KT 15SM FEW025 BKN055 OVC220 M12/M17 A3016 RMK SC2SC3CI3 SLP253=
METAR CYVT 152300Z 03007KT 15SM FEW018 BKN055 BKN220 M12/M17 A3015 RMK SC2SC3CI2 SLP248=

TAF CYVT 160038Z 1601/1604 03006KT P6SM FEW025 BKN050 TEMPO 1601/1604
SCT050
RMK NXT FCST WILL BE ISSUED AT 161345Z=
Your time UTC time
Weather data provided by Environment Canada and NAV CANADA